createdAt,value
2023-04-08T00:02:08.982Z,98714.22
2023-04-08T00:04:41.646Z,98713.53
2023-04-08T00:07:13.682Z,98718.66
2023-04-08T00:09:46.931Z,98709.56
2023-04-08T00:12:19.717Z,98718.16
2023-04-08T00:14:51.552Z,98709.78
2023-04-08T00:17:24.328Z,98710.50
2023-04-08T00:19:56.529Z,98712.16
2023-04-08T00:22:29.223Z,98712.50
2023-04-08T00:25:01.786Z,98706.41
2023-04-08T00:27:37.009Z,98701.50
2023-04-08T00:30:09.574Z,98707.25
2023-04-08T00:32:45.766Z,98707.28
2023-04-08T00:35:19.209Z,98706.78
2023-04-08T00:37:52.172Z,98707.94
2023-04-08T00:40:25.666Z,98714.88
2023-04-08T00:42:58.956Z,98708.56
2023-04-08T00:45:34.766Z,98716.00
2023-04-08T00:48:06.740Z,98711.84
2023-04-08T00:50:40.417Z,98718.69
2023-04-08T00:53:13.584Z,98709.34
2023-04-08T00:58:40.180Z,98706.84
2023-04-08T01:01:27.237Z,98709.22
2023-04-08T01:04:26.088Z,98709.56
2023-04-08T01:10:16.483Z,98709.81
2023-04-08T01:13:02.375Z,98709.94
2023-04-08T01:15:39.281Z,98713.75
2023-04-08T01:18:14.241Z,98712.06
2023-04-08T01:20:50.430Z,98713.22
2023-04-08T01:23:50.670Z,98713.75
2023-04-08T01:26:26.450Z,98711.66
2023-04-08T01:29:02.548Z,98714.13
2023-04-08T01:31:37.096Z,98711.16
2023-04-08T01:34:12.176Z,98717.69
2023-04-08T01:36:47.021Z,98711.56
2023-04-08T01:39:21.949Z,98714.81
2023-04-08T01:41:55.179Z,98709.00
2023-04-08T01:44:31.207Z,98720.66
2023-04-08T01:47:03.868Z,98713.63
2023-04-08T01:49:37.517Z,98711.00
2023-04-08T01:52:10.639Z,98709.59
2023-04-08T01:54:43.941Z,98710.69
2023-04-08T01:57:24.444Z,98714.63
2023-04-08T02:00:02.463Z,98717.28
2023-04-08T02:02:38.481Z,98710.16
2023-04-08T02:05:11.249Z,98711.72
2023-04-08T02:07:43.128Z,98709.88
2023-04-08T02:10:16.532Z,98707.78
2023-04-08T02:12:48.521Z,98728.81
2023-04-08T02:15:21.235Z,98720.28
2023-04-08T02:18:07.977Z,98720.44
2023-04-08T02:20:58.315Z,98726.91
2023-04-08T02:23:33.722Z,98723.16
2023-04-08T02:26:14.638Z,98727.47
2023-04-08T02:28:49.760Z,98723.75
2023-04-08T02:31:23.478Z,98719.06
2023-04-08T02:33:57.796Z,98713.75
2023-04-08T02:36:33.824Z,98720.94
2023-04-08T02:39:08.373Z,98716.69
2023-04-08T02:41:41.420Z,98725.25
2023-04-08T02:44:13.758Z,98721.44
2023-04-08T02:46:46.753Z,98711.25
2023-04-08T02:49:18.684Z,98720.22
2023-04-08T02:51:51.336Z,98722.41
2023-04-08T02:54:23.381Z,98722.28
2023-04-08T02:56:55.990Z,98712.63
2023-04-08T02:59:28.206Z,98721.66
2023-04-08T03:02:00.487Z,98723.06
2023-04-08T03:04:33.555Z,98722.41
2023-04-08T03:07:07.347Z,98719.22
2023-04-08T03:09:41.497Z,98720.41
2023-04-08T03:12:13.379Z,98713.19
2023-04-08T03:14:46.123Z,98721.66
2023-04-08T03:17:17.994Z,98711.03
2023-04-08T03:19:50.768Z,98719.38
2023-04-08T03:22:24.319Z,98712.22
2023-04-08T03:24:56.883Z,98716.75
2023-04-08T03:27:28.835Z,98716.50
2023-04-08T03:30:01.385Z,98714.47
2023-04-08T03:32:33.556Z,98718.03
2023-04-08T03:35:07.104Z,98714.81
2023-04-08T03:37:39.419Z,98710.84
2023-04-08T03:40:13.093Z,98717.38
2023-04-08T03:42:45.692Z,98714.84
2023-04-08T03:45:18.345Z,98725.09
2023-04-08T03:47:50.348Z,98719.91
2023-04-08T03:50:23.446Z,98716.66
2023-04-08T03:52:55.783Z,98718.44
2023-04-08T03:55:28.383Z,98716.41
2023-04-08T03:58:00.792Z,98713.13
2023-04-08T04:00:33.820Z,98714.31
2023-04-08T04:03:06.585Z,98718.19
2023-04-08T04:05:40.224Z,98706.78
2023-04-08T04:08:12.692Z,98715.72
2023-04-08T04:10:45.464Z,98717.53
2023-04-08T04:13:17.643Z,98711.56
2023-04-08T04:15:50.977Z,98719.50
2023-04-08T04:18:23.050Z,98722.72
2023-04-08T04:20:56.120Z,98726.00
2023-04-08T04:23:28.421Z,98725.97
2023-04-08T04:26:00.718Z,98726.63
2023-04-08T04:28:33.268Z,98727.25
2023-04-08T04:31:05.527Z,98727.28
2023-04-08T04:33:38.131Z,98727.44
2023-04-08T04:36:09.993Z,98731.28
2023-04-08T04:38:43.426Z,98728.03
2023-04-08T04:41:15.684Z,98730.31
2023-04-08T04:43:48.262Z,98734.34
2023-04-08T04:46:20.493Z,98735.78
2023-04-08T04:48:53.337Z,98751.13
2023-04-08T04:51:25.183Z,98742.22
2023-04-08T04:53:57.750Z,98749.28
2023-04-08T04:56:29.674Z,98747.38
2023-04-08T04:59:02.222Z,98751.16
2023-04-08T05:01:34.400Z,98752.38
2023-04-08T05:04:07.954Z,98759.22
2023-04-08T05:06:39.956Z,98757.50
2023-04-08T05:09:12.515Z,98758.53
2023-04-08T05:11:44.383Z,98751.22
2023-04-08T05:14:16.661Z,98746.28
2023-04-08T05:16:48.537Z,98753.41
2023-04-08T05:19:21.120Z,98760.69
2023-04-08T05:21:52.981Z,98762.72
2023-04-08T05:24:25.197Z,98764.91
2023-04-08T05:26:57.809Z,98765.53
2023-04-08T05:29:30.842Z,98776.63
2023-04-08T05:32:02.750Z,98768.25
2023-04-08T05:34:35.014Z,98765.84
2023-04-08T05:37:06.881Z,98773.66
2023-04-08T05:39:39.476Z,98775.41
2023-04-08T05:42:12.839Z,98772.22
2023-04-08T05:44:45.548Z,98782.13
2023-04-08T05:47:17.429Z,98783.69
2023-04-08T05:49:51.255Z,98789.09
2023-04-08T05:52:24.010Z,98787.75
2023-04-08T05:54:55.864Z,98786.31
2023-04-08T05:57:28.464Z,98788.03
2023-04-08T06:00:00.429Z,98789.28
2023-04-08T06:02:33.141Z,98798.53
2023-04-08T06:05:06.105Z,98794.81
2023-04-08T06:07:38.818Z,98802.56
2023-04-08T06:10:11.192Z,98805.50
2023-04-08T06:12:43.750Z,98811.28
2023-04-08T06:15:16.627Z,98813.94
2023-04-08T06:17:49.226Z,98817.78
2023-04-08T06:20:21.105Z,98814.56
2023-04-08T06:22:53.661Z,98812.72
2023-04-08T06:25:25.950Z,98810.09
2023-04-08T06:27:58.524Z,98813.28
2023-04-08T06:30:30.419Z,98808.06
2023-04-08T06:33:03.132Z,98810.09
2023-04-08T06:35:37.288Z,98816.66
2023-04-08T06:38:10.035Z,98820.06
2023-04-08T06:40:42.018Z,98814.50
2023-04-08T06:43:15.113Z,98822.47
2023-04-08T06:45:47.403Z,98828.19
2023-04-08T06:48:19.949Z,98825.03
2023-04-08T06:50:51.865Z,98814.91
2023-04-08T06:53:25.091Z,98828.47
2023-04-08T06:55:57.031Z,98829.50
2023-04-08T06:58:30.270Z,98831.25
2023-04-08T07:01:03.276Z,98836.53
2023-04-08T07:03:35.962Z,98838.63
2023-04-08T07:06:07.939Z,98840.31
2023-04-08T07:08:40.925Z,98843.78
2023-04-08T07:11:12.875Z,98843.81
2023-04-08T07:13:45.453Z,98842.66
2023-04-08T07:16:17.434Z,98843.41
2023-04-08T07:18:50.230Z,98846.31
2023-04-08T07:21:22.319Z,98842.72
2023-04-08T07:23:54.866Z,98844.47
2023-04-08T07:26:28.739Z,98844.56
2023-04-08T07:29:00.616Z,98833.72
2023-04-08T07:31:32.910Z,98839.56
2023-04-08T07:34:04.985Z,98846.47
2023-04-08T07:36:38.704Z,98841.31
2023-04-08T07:39:10.939Z,98841.47
2023-04-08T07:41:43.180Z,98840.31
2023-04-08T07:44:17.164Z,98838.78
2023-04-08T07:46:52.002Z,98837.66
2023-04-08T07:49:24.261Z,98831.13
2023-04-08T07:51:57.826Z,98843.16
2023-04-08T07:54:34.106Z,98837.59
2023-04-08T07:57:07.090Z,98836.22
2023-04-08T07:59:39.258Z,98842.81
2023-04-08T08:02:11.900Z,98836.84
2023-04-08T08:04:43.968Z,98838.44
2023-04-08T08:07:16.897Z,98845.53
2023-04-08T08:09:49.162Z,98844.72
2023-04-08T08:12:21.772Z,98848.41
2023-04-08T08:14:54.822Z,98849.31
2023-04-08T08:17:30.482Z,98853.41
2023-04-08T08:20:04.425Z,98852.59
2023-04-08T08:22:47.317Z,98863.91
2023-04-08T08:25:26.690Z,98855.91
2023-04-08T08:27:59.622Z,98863.41
2023-04-08T08:33:04.088Z,98869.50
2023-04-08T08:35:36.070Z,98870.03
2023-04-08T08:38:08.694Z,98866.00
2023-04-08T08:40:40.738Z,98862.56
2023-04-08T08:43:14.450Z,98873.00
2023-04-08T08:45:47.738Z,98869.69
2023-04-08T08:48:20.900Z,98875.06
2023-04-08T08:50:52.865Z,98868.13
2023-04-08T08:53:34.244Z,98863.44
2023-04-08T08:58:45.039Z,98868.13
2023-04-08T09:01:34.444Z,98876.50
2023-04-08T09:04:19.876Z,98874.53
2023-04-08T09:07:27.140Z,98876.06
2023-04-08T09:09:59.922Z,98877.97
2023-04-08T09:12:32.948Z,98882.13
2023-04-08T09:15:09.801Z,98881.25
2023-04-08T09:17:42.867Z,98879.31
2023-04-08T09:20:15.415Z,98881.31
2023-04-08T09:23:02.701Z,98887.31
2023-04-08T09:25:34.649Z,98882.03
2023-04-08T09:28:24.209Z,98876.94
2023-04-08T09:30:56.493Z,98876.84
2023-04-08T09:33:32.573Z,98880.88
2023-04-08T09:36:06.226Z,98881.53
2023-04-08T09:38:38.677Z,98878.22
2023-04-08T09:41:16.606Z,98880.09
2023-04-08T09:43:54.734Z,98878.09
2023-04-08T09:46:32.222Z,98880.66
2023-04-08T09:49:13.706Z,98889.22
2023-04-08T09:52:09.749Z,98884.53
2023-04-08T09:55:08.668Z,98883.22
2023-04-08T09:58:00.109Z,98894.94
2023-04-08T10:00:44.446Z,98892.34
2023-04-08T10:03:40.760Z,98894.34
2023-04-08T10:06:14.147Z,98897.59
2023-04-08T10:08:46.728Z,98900.88
2023-04-08T10:11:19.225Z,98900.91
2023-04-08T10:13:52.905Z,98901.59
2023-04-08T10:16:27.806Z,98899.59
2023-04-08T10:19:00.266Z,98903.53
2023-04-08T10:21:36.334Z,98906.63
2023-04-08T10:24:12.262Z,98911.78
2023-04-08T10:26:49.244Z,98911.69
2023-04-08T10:29:31.165Z,98912.25
2023-04-08T10:32:04.081Z,98910.94
2023-04-08T10:34:54.301Z,98910.38
2023-04-08T10:37:27.089Z,98917.31
2023-04-08T10:39:59.435Z,98910.66
2023-04-08T10:42:32.129Z,98906.66
2023-04-08T10:45:05.204Z,98908.84
2023-04-08T10:47:38.904Z,98903.81
2023-04-08T10:50:20.810Z,98906.84
2023-04-08T10:52:54.396Z,98902.41
2023-04-08T10:55:27.416Z,98895.25
2023-04-08T10:58:11.144Z,98896.56
2023-04-08T11:00:44.431Z,98897.25
2023-04-08T11:03:16.965Z,98883.72
2023-04-08T11:05:52.155Z,98887.06
2023-04-08T11:08:33.013Z,98883.16
2023-04-08T11:11:11.315Z,98883.84
2023-04-08T11:13:53.453Z,98877.81
2023-04-08T11:16:28.038Z,98875.81
2023-04-08T11:19:00.403Z,98871.81
2023-04-08T11:21:36.041Z,98871.81
2023-04-08T11:24:13.681Z,98864.78
2023-04-08T11:26:46.382Z,98869.81
2023-04-08T11:29:18.423Z,98858.09
2023-04-08T11:31:51.437Z,98870.44
2023-04-08T11:34:25.685Z,98863.91
2023-04-08T11:36:59.488Z,98864.81
2023-04-08T11:39:32.056Z,98868.41
2023-04-08T11:42:05.832Z,98852.47
2023-04-08T11:44:37.720Z,98860.16
2023-04-08T11:47:11.252Z,98854.28
2023-04-08T11:49:47.856Z,98858.78
2023-04-08T11:52:48.035Z,98841.59
2023-04-08T11:55:34.174Z,98855.06
2023-04-08T11:58:07.478Z,98853.59
2023-04-08T12:00:40.994Z,98853.84
2023-04-08T12:03:13.725Z,98855.94
2023-04-08T12:05:47.428Z,98852.00
2023-04-08T12:08:19.780Z,98853.38
2023-04-08T12:10:52.462Z,98846.13
2023-04-08T12:13:24.378Z,98849.44
2023-04-08T12:15:57.116Z,98848.09
2023-04-08T12:18:29.003Z,98855.41
2023-04-08T12:21:01.780Z,98855.38
2023-04-08T12:23:33.748Z,98845.47
2023-04-08T12:26:06.777Z,98849.41
2023-04-08T12:28:38.999Z,98843.47
2023-04-08T12:31:12.426Z,98844.13
2023-04-08T12:33:44.834Z,98837.53
2023-04-08T12:39:10.741Z,98829.59
2023-04-08T12:41:43.145Z,98838.16
2023-04-08T12:44:16.029Z,98837.50
2023-04-08T12:46:48.616Z,98830.22
2023-04-08T12:49:20.612Z,98836.66
2023-04-08T12:51:54.209Z,98830.09
2023-04-08T12:54:26.135Z,98828.31
2023-04-08T12:56:58.945Z,98826.34
2023-04-08T12:59:32.181Z,98819.06
2023-04-08T13:02:06.185Z,98821.63
2023-04-08T13:04:38.834Z,98823.53
2023-04-08T13:07:11.578Z,98826.50
2023-04-08T13:09:45.868Z,98822.22
2023-04-08T13:12:18.678Z,98823.88
2023-04-08T13:14:50.651Z,98830.69
2023-04-08T13:17:23.439Z,98822.19
2023-04-08T13:19:55.806Z,98828.88
2023-04-08T13:22:28.903Z,98836.13
2023-04-08T13:25:01.876Z,98822.19
2023-04-08T13:27:34.671Z,98822.81
2023-04-08T13:30:07.482Z,98826.69
2023-04-08T13:32:39.895Z,98824.75
2023-04-08T13:35:11.874Z,98832.75
2023-04-08T13:37:45.333Z,98821.41
2023-04-08T13:40:17.669Z,98812.91
2023-04-08T13:42:51.017Z,98823.50
2023-04-08T13:45:23.448Z,98823.47
2023-04-08T13:47:57.126Z,98827.47
2023-04-08T13:50:28.988Z,98825.47
2023-04-08T13:53:01.946Z,98822.84
2023-04-08T13:55:34.745Z,98824.78
2023-04-08T13:58:17.281Z,98834.75
2023-04-08T14:00:56.011Z,98827.47
2023-04-08T14:03:28.970Z,98836.13
2023-04-08T14:06:02.059Z,98833.50
2023-04-08T14:08:34.020Z,98838.78
2023-04-08T14:11:06.930Z,98835.50
2023-04-08T14:13:39.654Z,98836.19
2023-04-08T14:16:12.387Z,98832.22
2023-04-08T14:18:44.294Z,98833.56
2023-04-08T14:21:18.566Z,98835.53
2023-04-08T14:23:51.076Z,98836.19
2023-04-08T14:26:45.992Z,98835.56
2023-04-08T14:29:18.269Z,98831.56
2023-04-08T14:31:51.222Z,98828.94
2023-04-08T14:34:23.700Z,98838.81
2023-04-08T14:36:56.655Z,98836.16
2023-04-08T14:39:29.432Z,98836.81
2023-04-08T14:42:04.681Z,98828.22
2023-04-08T14:44:36.938Z,98832.84
2023-04-08T14:47:11.168Z,98826.88
2023-04-08T14:49:43.915Z,98833.47
2023-04-08T14:52:16.469Z,98839.44
2023-04-08T14:54:48.879Z,98834.13
2023-04-08T14:57:20.867Z,98845.38
2023-04-08T14:59:54.359Z,98843.41
2023-04-08T15:02:26.716Z,98836.13
2023-04-08T15:04:59.072Z,98831.50
2023-04-08T15:07:32.277Z,98838.09
2023-04-08T15:10:05.124Z,98837.44
2023-04-08T15:12:37.415Z,98838.72
2023-04-08T15:15:10.390Z,98832.09
2023-04-08T15:17:43.140Z,98842.03
2023-04-08T15:20:15.593Z,98842.66
2023-04-08T15:22:48.373Z,98842.72
2023-04-08T15:25:20.816Z,98839.44
2023-04-08T15:27:52.704Z,98837.47
2023-04-08T15:30:28.717Z,98847.38
2023-04-08T15:33:05.658Z,98840.78
2023-04-08T15:35:39.508Z,98842.81
2023-04-08T15:41:05.411Z,98838.78
2023-04-08T15:43:38.129Z,98840.16
2023-04-08T15:49:03.604Z,98841.44
2023-04-08T15:51:59.905Z,98840.78
2023-04-08T15:54:34.073Z,98840.75
2023-04-08T15:57:06.800Z,98836.19
2023-04-08T15:59:38.658Z,98835.53
2023-04-08T16:02:11.430Z,98840.16
2023-04-08T16:04:44.204Z,98844.75
2023-04-08T16:07:17.113Z,98846.75
2023-04-08T16:09:48.954Z,98840.09
2023-04-08T16:12:21.778Z,98848.66
2023-04-08T16:14:53.883Z,98849.97
2023-04-08T16:17:27.954Z,98853.91
2023-04-08T16:20:00.390Z,98848.66
2023-04-08T16:22:33.777Z,98855.22
2023-04-08T16:25:06.452Z,98855.94
2023-04-08T16:27:39.259Z,98853.91
2023-04-08T16:30:11.898Z,98857.81
2023-04-08T16:32:44.670Z,98854.50
2023-04-08T16:35:17.752Z,98857.75
2023-04-08T16:37:50.939Z,98858.47
2023-04-08T16:40:24.271Z,98859.16
2023-04-08T16:42:56.821Z,98855.25
2023-04-08T16:45:30.310Z,98863.16
2023-04-08T16:48:02.540Z,98867.13
2023-04-08T16:50:35.227Z,98864.50
2023-04-08T16:53:07.192Z,98869.78
2023-04-08T16:55:40.174Z,98868.41
2023-04-08T16:58:12.495Z,98876.97
2023-04-08T17:00:45.190Z,98874.31
2023-04-08T17:03:17.745Z,98873.53
2023-04-08T17:05:51.255Z,98879.44
2023-04-08T17:08:23.738Z,98886.63
2023-04-08T17:11:13.092Z,98878.72
2023-04-08T17:13:46.130Z,98885.28
2023-04-08T17:16:24.036Z,98893.19
2023-04-08T17:18:56.100Z,98889.88
2023-04-08T17:21:50.464Z,98883.97
2023-04-08T17:24:22.458Z,98886.63
2023-04-08T17:26:57.188Z,98891.28
2023-04-08T17:29:29.943Z,98889.97
2023-04-08T17:32:01.877Z,98890.56
2023-04-08T17:34:34.780Z,98897.09
2023-04-08T17:37:07.671Z,98900.38
2023-04-08T17:39:41.382Z,98893.72
2023-04-08T17:42:14.588Z,98897.00
2023-04-08T17:45:08.678Z,98902.81
2023-04-08T17:50:36.665Z,98904.81
2023-04-08T17:53:08.927Z,98909.44
2023-04-08T17:55:41.432Z,98908.75
2023-04-08T17:58:13.374Z,98912.72
2023-04-08T18:00:47.653Z,98907.41
2023-04-08T18:03:20.730Z,98918.06
2023-04-08T18:05:55.138Z,98915.44
2023-04-08T18:08:27.922Z,98921.44
2023-04-08T18:10:59.822Z,98924.66
2023-04-08T18:13:32.618Z,98929.28
2023-04-08T18:16:15.653Z,98926.56
2023-04-08T18:18:48.562Z,98929.09
2023-04-08T18:21:22.004Z,98929.69
2023-04-08T18:23:55.018Z,98935.50
2023-04-08T18:26:28.845Z,98936.00
2023-04-08T18:29:04.449Z,98935.84
2023-04-08T18:31:36.725Z,98942.81
2023-04-08T18:34:09.162Z,98952.44
2023-04-08T18:36:41.107Z,98957.69
2023-04-08T18:39:13.881Z,98944.94
2023-04-08T18:41:45.813Z,98950.19
2023-04-08T18:44:19.122Z,98958.13
2023-04-08T18:46:51.711Z,98958.03
2023-04-08T18:49:25.056Z,98968.63
2023-04-08T18:52:02.435Z,98966.03
2023-04-08T18:54:34.796Z,98966.03
2023-04-08T18:57:07.517Z,98973.19
2023-04-08T18:59:40.242Z,98971.88
2023-04-08T19:02:12.604Z,98975.69
2023-04-08T19:04:45.357Z,98973.00
2023-04-08T19:07:17.786Z,98984.69
2023-04-08T19:09:53.546Z,98980.09
2023-04-08T19:12:26.576Z,98974.13
2023-04-08T19:14:59.755Z,98982.69
2023-04-08T19:17:31.778Z,98981.38
2023-04-08T19:20:04.920Z,98979.41
2023-04-08T19:22:37.580Z,98989.16
2023-04-08T19:25:09.619Z,98987.97
2023-04-08T19:27:42.373Z,98986.03
2023-04-08T19:30:15.538Z,98982.13
2023-04-08T19:32:49.035Z,98978.00
2023-04-08T19:35:21.460Z,98979.88
2023-04-08T19:37:54.140Z,98975.19
2023-04-08T19:40:26.233Z,98976.53
2023-04-08T19:42:59.684Z,98980.38
2023-04-08T19:45:32.564Z,98984.25
2023-04-08T19:48:05.830Z,98988.16
2023-04-08T19:50:39.447Z,98988.06
2023-04-08T19:53:11.414Z,98986.06
2023-04-08T19:55:44.867Z,98983.28
2023-04-08T19:58:16.788Z,98982.50
2023-04-08T20:00:49.690Z,98986.91
2023-04-08T20:03:22.339Z,98984.19
2023-04-08T20:05:55.456Z,98979.50
2023-04-08T20:08:28.494Z,98982.09
2023-04-08T20:11:04.567Z,98980.22
2023-04-08T20:13:37.218Z,98980.03
2023-04-08T20:16:10.172Z,98977.53
2023-04-08T20:18:42.061Z,98987.91
2023-04-08T20:21:15.080Z,98985.16
2023-04-08T20:23:47.269Z,98984.41
2023-04-08T20:26:21.869Z,98994.19
2023-04-08T20:28:56.254Z,98986.09
2023-04-08T20:31:32.523Z,98980.75
2023-04-08T20:34:04.767Z,98983.34
2023-04-08T20:36:38.589Z,98983.44
2023-04-08T20:39:11.412Z,98989.28
2023-04-08T20:41:44.921Z,98987.88
2023-04-08T20:44:17.554Z,98982.53
2023-04-08T20:46:50.505Z,98984.56
2023-04-08T20:49:23.394Z,98982.44
2023-04-08T20:51:56.383Z,98991.00
2023-04-08T20:54:31.235Z,98989.78
2023-04-08T20:57:03.737Z,98981.91
2023-04-08T20:59:39.172Z,98979.22
2023-04-08T21:02:22.461Z,98978.56
2023-04-08T21:04:58.465Z,98984.50
2023-04-08T21:07:31.206Z,98977.81
2023-04-08T21:10:07.522Z,98981.00
2023-04-08T21:12:39.798Z,98982.50
2023-04-08T21:15:12.725Z,98976.47
2023-04-08T21:17:45.654Z,98982.28
2023-04-08T21:20:17.992Z,98972.44
2023-04-08T21:22:50.494Z,98977.66
2023-04-08T21:25:24.800Z,98969.06
2023-04-08T21:27:57.605Z,98972.38
2023-04-08T21:30:48.330Z,98978.34
2023-04-08T21:33:21.502Z,98979.56
2023-04-08T21:35:53.513Z,98973.44
2023-04-08T21:38:26.219Z,98966.28
2023-04-08T21:40:58.932Z,98975.19
2023-04-08T21:43:31.231Z,98981.84
2023-04-08T21:46:04.233Z,98969.22
2023-04-08T21:48:37.064Z,98971.78
2023-04-08T21:51:08.932Z,98985.66
2023-04-08T21:53:41.661Z,98981.91
2023-04-08T21:56:13.970Z,98986.94
2023-04-08T21:58:46.762Z,98991.53
2023-04-08T22:01:19.099Z,98986.88
2023-04-08T22:03:54.257Z,98989.34
2023-04-08T22:06:32.265Z,98990.41
2023-04-08T22:09:05.556Z,98986.66
2023-04-08T22:11:39.584Z,98982.44
2023-04-08T22:14:12.069Z,98975.16
2023-04-08T22:17:04.072Z,98970.41
2023-04-08T22:19:36.146Z,98969.63
2023-04-08T22:22:08.833Z,98963.63
2023-04-08T22:24:40.764Z,98977.28
2023-04-08T22:27:13.982Z,98970.88
2023-04-08T22:29:46.276Z,98973.38
2023-04-08T22:32:40.991Z,98977.84
2023-04-08T22:35:13.376Z,98985.59
2023-04-08T22:37:46.309Z,98984.22
2023-04-08T22:40:18.364Z,98986.47
2023-04-08T22:42:51.252Z,98980.28
2023-04-08T22:45:23.566Z,98979.28
2023-04-08T22:47:55.580Z,98985.72
2023-04-08T22:50:28.994Z,98972.00
2023-04-08T22:53:00.886Z,98968.03
2023-04-08T22:55:33.706Z,98971.19
2023-04-08T22:58:05.959Z,98971.41
2023-04-08T23:00:38.673Z,98976.38
2023-04-08T23:03:10.582Z,98967.72
2023-04-08T23:05:43.541Z,98976.75
2023-04-08T23:08:16.461Z,98970.75
2023-04-08T23:10:48.765Z,98965.56
2023-04-08T23:13:21.101Z,98972.09
2023-04-08T23:15:53.686Z,98966.06
2023-04-08T23:18:26.555Z,98973.84
2023-04-08T23:20:59.722Z,98981.50
2023-04-08T23:23:31.893Z,98974.09
2023-04-08T23:26:05.006Z,98974.06
2023-04-08T23:28:37.277Z,98976.47
2023-04-08T23:31:10.694Z,98970.16
2023-04-08T23:33:42.598Z,98976.69
2023-04-08T23:39:08.489Z,98974.34
2023-04-08T23:41:41.286Z,98971.72
2023-04-08T23:44:13.184Z,98976.34
2023-04-08T23:46:46.007Z,98972.13
2023-04-08T23:49:18.275Z,98968.97
2023-04-08T23:51:50.698Z,98962.03
2023-04-08T23:54:23.042Z,98960.94
2023-04-08T23:56:55.324Z,98966.72
2023-04-08T23:59:30.840Z,98964.53
